Time;durP1;ratioP1;P1;durP2;ratioP2;P2;SDS_P1;SDS_P2;PMS_P1;PMS_P2;Temp;Humidity;BMP_temperature;BMP_pressure;BME280_temperature;BME280_humidity;BME280_pressure;Samples;Min_cycle;Max_cycle;Signal;HPM_P1;HPM_P2
2022/08/06 00:00:22;;;;;;;2.37;2.17;;;22.60;90.90;;;;;;4991080;28;20242;-63
2022/08/06 00:02:47;;;;;;;4.20;2.40;;;22.60;90.80;;;;;;4988914;28;20187;-61
2022/08/06 00:05:13;;;;;;;2.77;2.40;;;22.60;90.90;;;;;;5002482;28;20223;-63
2022/08/06 00:07:38;;;;;;;2.87;2.30;;;22.50;90.90;;;;;;4985352;28;20203;-62
2022/08/06 00:10:04;;;;;;;2.30;2.10;;;22.60;90.90;;;;;;4990054;28;20649;-63
2022/08/06 00:12:32;;;;;;;4.93;2.33;;;22.60;90.80;;;;;;4987597;28;20211;-62
2022/08/06 00:14:58;;;;;;;2.33;2.13;;;22.60;90.70;;;;;;4986672;28;20504;-63
2022/08/06 00:17:24;;;;;;;2.80;2.60;;;22.50;90.90;;;;;;4989920;28;20451;-63
2022/08/06 00:19:50;;;;;;;4.10;2.37;;;22.40;91.20;;;;;;4987097;28;20446;-63
2022/08/06 00:22:16;;;;;;;2.33;2.13;;;22.50;91.00;;;;;;4990191;28;20500;-61
2022/08/06 00:24:41;;;;;;;2.00;1.90;;;22.50;90.20;;;;;;4990721;28;20202;-62
2022/08/06 00:27:07;;;;;;;3.20;2.27;;;22.40;90.30;;;;;;4989896;28;20213;-62
2022/08/06 00:29:33;;;;;;;2.53;2.33;;;22.30;90.00;;;;;;4992397;28;20202;-62
2022/08/06 00:31:59;;;;;;;2.60;2.40;;;22.60;90.70;;;;;;4986580;28;20847;-62
2022/08/06 00:34:24;;;;;;;2.63;2.17;;;22.00;90.30;;;;;;4989386;28;20517;-64
2022/08/06 00:36:50;;;;;;;2.30;2.10;;;22.00;90.80;;;;;;4984575;28;20730;-63
2022/08/06 00:39:16;;;;;;;2.00;1.90;;;22.00;90.80;;;;;;4994518;28;20191;-63
2022/08/06 00:41:41;;;;;;;2.23;2.03;;;22.10;90.50;;;;;;4988859;28;20195;-63
2022/08/06 00:44:08;;;;;;;2.27;2.10;;;22.10;90.50;;;;;;4989569;28;20179;-63
2022/08/06 00:46:33;;;;;;;2.40;2.20;;;22.20;89.50;;;;;;4989194;28;20460;-63
2022/08/06 00:48:59;;;;;;;2.37;2.17;;;22.20;89.80;;;;;;4989869;28;20561;-64
2022/08/06 00:51:24;;;;;;;2.20;2.00;;;22.30;89.70;;;;;;4989381;28;20195;-63
2022/08/06 00:53:51;;;;;;;2.77;2.13;;;22.30;89.60;;;;;;4990668;28;20219;-63
2022/08/06 00:56:17;;;;;;;2.40;2.20;;;22.30;88.70;;;;;;4992647;28;20258;-63
2022/08/06 00:58:42;;;;;;;2.93;2.10;;;22.20;88.80;;;;;;4987863;28;20955;-64
2022/08/06 01:01:09;;;;;;;2.33;2.10;;;22.20;89.20;;;;;;4988701;28;20188;-62
2022/08/06 01:03:34;;;;;;;2.63;2.43;;;22.00;88.10;;;;;;4990290;28;20645;-62
2022/08/06 01:06:00;;;;;;;2.13;2.00;;;22.00;88.90;;;;;;4982634;28;20537;-62
2022/08/06 01:08:25;;;;;;;2.83;2.40;;;22.00;87.70;;;;;;4990091;28;20239;-62
2022/08/06 01:10:51;;;;;;;2.00;1.90;;;21.90;87.60;;;;;;4991830;28;20663;-63
2022/08/06 01:13:16;;;;;;;2.37;2.27;;;21.90;87.50;;;;;;4998840;28;20276;-62
2022/08/06 01:16:01;;;;;;;2.33;2.10;;;21.90;87.10;;;;;;4989897;28;20276;-62
2022/08/06 01:18:30;;;;;;;2.10;2.00;;;21.90;86.80;;;;;;4988699;28;20317;-63
2022/08/06 01:21:21;;;;;;;1.80;1.70;;;21.80;87.20;;;;;;4990994;28;20470;-62
2022/08/06 01:24:30;;;;;;;1.80;1.70;;;21.80;86.50;;;;;;4991763;28;20187;-62
2022/08/06 01:27:23;;;;;;;2.00;1.90;;;21.90;86.70;;;;;;4991500;28;20212;-62
2022/08/06 01:29:55;;;;;;;2.63;2.00;;;21.60;85.70;;;;;;4986591;28;20282;-62
2022/08/06 01:32:35;;;;;;;2.45;1.92;;;21.60;86.70;;;;;;4991353;28;20473;-63
2022/08/06 01:35:10;;;;;;;3.05;1.80;;;21.60;85.70;;;;;;4993202;28;20579;-62
2022/08/06 01:37:45;;;;;;;4.60;1.90;;;21.60;85.70;;;;;;4991006;28;20202;-63
2022/08/06 01:40:18;;;;;;;3.63;2.10;;;21.40;86.40;;;;;;4990823;28;20175;-62
2022/08/06 01:42:45;;;;;;;2.33;2.13;;;21.30;87.30;;;;;;4989744;28;20207;-62
2022/08/06 01:45:15;;;;;;;2.10;1.90;;;21.40;87.00;;;;;;4991979;28;20206;-63
2022/08/06 01:47:45;;;;;;;1.92;1.80;;;21.50;86.90;;;;;;4995063;28;20222;-63
2022/08/06 01:50:13;;;;;;;3.40;2.13;;;21.50;87.00;;;;;;4992038;28;20223;-63
2022/08/06 01:52:42;;;;;;;2.63;2.03;;;21.60;87.10;;;;;;4990433;28;20502;-62
2022/08/06 01:55:14;;;;;;;1.95;1.77;;;22.10;85.60;;;;;;4990113;28;20180;-62
2022/08/06 01:57:55;;;;;;;3.30;2.00;;;21.40;85.60;;;;;;4988361;28;20664;-63
2022/08/06 02:00:20;;;;;;;2.33;1.73;;;21.50;85.80;;;;;;4987091;28;20184;-63
2022/08/06 02:02:48;;;;;;;1.90;1.80;;;21.50;86.00;;;;;;4991783;28;21458;-63
2022/08/06 02:05:16;;;;;;;1.80;1.70;;;21.50;85.80;;;;;;4989146;28;20203;-62
2022/08/06 02:07:47;;;;;;;1.90;1.80;;;21.70;85.70;;;;;;4991332;28;20211;-63
2022/08/06 02:10:16;;;;;;;2.53;2.00;;;21.70;84.50;;;;;;4992947;28;20179;-63
2022/08/06 02:12:46;;;;;;;5.00;2.22;;;21.70;84.60;;;;;;4991991;28;20470;-63
2022/08/06 02:15:22;;;;;;;1.90;1.80;;;21.50;85.00;;;;;;4989505;28;20219;-63
2022/08/06 02:17:52;;;;;;;2.67;2.33;;;21.50;85.10;;;;;;4989763;28;20904;-63
2022/08/06 02:20:25;;;;;;;2.05;1.85;;;21.30;85.10;;;;;;4992582;28;20195;-62
2022/08/06 02:22:52;;;;;;;1.98;1.83;;;21.10;85.90;;;;;;4983699;28;20195;-62
2022/08/06 02:25:18;;;;;;;1.67;1.58;;;21.10;86.60;;;;;;4992726;28;20179;-63
2022/08/06 02:27:48;;;;;;;2.60;2.40;;;21.10;87.60;;;;;;4991869;28;20210;-63
2022/08/06 02:30:14;;;;;;;1.88;1.67;;;21.10;86.30;;;;;;4988193;28;20183;-62
2022/08/06 02:32:41;;;;;;;1.70;1.60;;;21.10;87.20;;;;;;4991751;28;20226;-62
2022/08/06 02:35:08;;;;;;;2.72;1.90;;;21.10;86.80;;;;;;4990442;28;20955;-62
2022/08/06 02:37:40;;;;;;;2.75;2.40;;;21.20;87.40;;;;;;4989725;28;20571;-61
2022/08/06 02:40:11;;;;;;;2.08;1.88;;;21.30;88.60;;;;;;4986681;28;20172;-61
2022/08/06 02:42:49;;;;;;;3.70;1.80;;;21.30;86.80;;;;;;4991728;28;20199;-60
2022/08/06 02:45:20;;;;;;;2.20;1.95;;;21.30;85.90;;;;;;4991928;28;20180;-60
2022/08/06 02:47:57;;;;;;;1.90;1.80;;;21.20;86.00;;;;;;4990471;28;20809;-61
2022/08/06 02:50:29;;;;;;;3.75;2.05;;;21.00;86.50;;;;;;4987763;28;20241;-60
2022/08/06 02:53:01;;;;;;;2.63;1.98;;;21.00;87.00;;;;;;4987957;28;20239;-61
2022/08/06 02:55:33;;;;;;;2.00;1.85;;;21.00;87.10;;;;;;4992044;28;20175;-60
2022/08/06 02:58:09;;;;;;;2.22;2.00;;;20.80;87.20;;;;;;4991663;28;20330;-60
2022/08/06 03:00:39;;;;;;;1.85;1.73;;;20.80;87.70;;;;;;4989383;28;20826;-60
2022/08/06 03:03:07;;;;;;;2.13;1.92;;;20.80;87.90;;;;;;4990415;28;20627;-60
2022/08/06 03:05:33;;;;;;;2.30;2.10;;;20.90;88.30;;;;;;4985489;28;20184;-60
2022/08/06 03:08:02;;;;;;;2.42;2.17;;;20.90;88.00;;;;;;4989600;28;20226;-60
2022/08/06 03:10:29;;;;;;;2.25;2.05;;;21.30;88.40;;;;;;4992389;28;20283;-60
2022/08/06 03:12:56;;;;;;;1.92;1.83;;;20.80;87.90;;;;;;4990686;28;20214;-60
2022/08/06 03:15:23;;;;;;;3.17;1.70;;;20.70;88.50;;;;;;4991075;28;20183;-60
2022/08/06 03:17:50;;;;;;;2.15;2.00;;;20.70;88.70;;;;;;4990181;28;20207;-60
2022/08/06 03:20:21;;;;;;;4.00;3.25;;;20.70;88.70;;;;;;4990984;28;20171;-60
2022/08/06 03:22:49;;;;;;;2.10;1.90;;;20.70;89.00;;;;;;4988935;28;20187;-60
2022/08/06 03:25:16;;;;;;;2.00;1.75;;;20.70;89.40;;;;;;4989817;28;20191;-60
2022/08/06 03:27:43;;;;;;;2.25;2.05;;;20.60;89.10;;;;;;4989341;28;20213;-60
2022/08/06 03:30:11;;;;;;;1.90;1.80;;;20.70;88.80;;;;;;4987838;28;20203;-61
2022/08/06 03:32:37;;;;;;;2.58;1.90;;;20.60;88.90;;;;;;4990611;28;20218;-60
2022/08/06 03:35:03;;;;;;;2.38;1.75;;;20.60;89.10;;;;;;4989923;28;20180;-61
2022/08/06 03:37:31;;;;;;;2.53;2.33;;;20.50;90.50;;;;;;4980787;28;20413;-61
2022/08/06 03:39:58;;;;;;;2.55;2.35;;;20.40;90.40;;;;;;4990344;28;20180;-61
2022/08/06 03:42:25;;;;;;;3.50;2.20;;;20.40;90.40;;;;;;4990349;28;20661;-61
2022/08/06 03:44:50;;;;;;;2.30;2.10;;;20.40;90.40;;;;;;4990475;28;20698;-61
2022/08/06 03:47:28;;;;;;;3.80;2.00;;;20.40;90.50;;;;;;4979769;28;20200;-61
2022/08/06 03:50:08;;;;;;;2.88;1.92;;;20.40;90.50;;;;;;4987833;28;20620;-61
2022/08/06 03:52:39;;;;;;;3.22;2.92;;;20.60;90.20;;;;;;4977716;28;20230;-61
2022/08/06 03:55:07;;;;;;;3.08;1.95;;;20.60;90.00;;;;;;4983968;28;20680;-59
2022/08/06 03:57:40;;;;;;;3.95;2.25;;;20.60;90.00;;;;;;4982822;28;20311;-62
2022/08/06 04:00:08;;;;;;;1.90;1.80;;;20.70;90.10;;;;;;4981681;28;20187;-61
2022/08/06 04:02:56;;;;;;;2.53;2.17;;;20.70;90.10;;;;;;4990432;28;20750;-61
2022/08/06 04:05:25;;;;;;;2.65;2.10;;;20.60;90.20;;;;;;4987857;28;20270;-61
2022/08/06 04:07:59;;;;;;;4.85;2.20;;;20.60;90.20;;;;;;4987253;28;20784;-61
2022/08/06 04:10:30;;;;;;;2.20;2.00;;;20.80;90.10;;;;;;4986114;28;20242;-61
2022/08/06 04:12:56;;;;;;;2.00;1.83;;;20.80;90.00;;;;;;4990039;28;20215;-61
2022/08/06 04:15:23;;;;;;;2.47;1.95;;;20.80;89.90;;;;;;4989757;28;20184;-60
2022/08/06 04:17:51;;;;;;;3.10;2.08;;;20.80;90.10;;;;;;4990170;28;20204;-59
2022/08/06 04:20:20;;;;;;;3.70;1.63;;;20.80;90.10;;;;;;4989950;28;20179;-62
2022/08/06 04:22:46;;;;;;;8.02;1.95;;;20.70;90.30;;;;;;4982229;28;20731;-60
2022/08/06 04:25:12;;;;;;;2.13;1.93;;;20.60;90.40;;;;;;4991009;28;20191;-61
2022/08/06 04:27:40;;;;;;;2.58;2.33;;;20.50;90.50;;;;;;4989785;28;20212;-61
2022/08/06 04:30:06;;;;;;;2.75;2.50;;;20.60;90.60;;;;;;4988361;28;20597;-61
2022/08/06 04:32:32;;;;;;;2.58;2.33;;;20.60;90.60;;;;;;4988788;28;20223;-61
2022/08/06 04:35:02;;;;;;;2.20;2.10;;;20.70;90.30;;;;;;4990346;28;20234;-61
2022/08/06 04:37:28;;;;;;;3.08;2.13;;;20.40;91.00;;;;;;4986226;28;20220;-61
2022/08/06 04:39:54;;;;;;;3.70;1.80;;;20.40;90.60;;;;;;4989938;28;20214;-61
2022/08/06 04:42:20;;;;;;;2.33;1.90;;;20.50;90.70;;;;;;4988649;28;20538;-61
2022/08/06 04:44:46;;;;;;;3.23;2.63;;;20.50;90.80;;;;;;4997196;28;20191;-60
2022/08/06 04:47:12;;;;;;;2.22;2.03;;;20.50;91.00;;;;;;4991968;28;20215;-61
2022/08/06 04:49:38;;;;;;;2.23;2.03;;;20.40;91.00;;;;;;4990002;28;20191;-60
2022/08/06 04:52:04;;;;;;;1.93;1.83;;;20.40;91.00;;;;;;4988193;28;20470;-61
2022/08/06 04:54:30;;;;;;;2.65;2.45;;;20.30;91.10;;;;;;4993925;28;20664;-60
2022/08/06 04:56:55;;;;;;;4.00;2.10;;;20.20;91.20;;;;;;4992879;28;20278;-61
2022/08/06 04:59:21;;;;;;;2.28;2.05;;;20.30;91.50;;;;;;4992454;28;20444;-61
2022/08/06 05:01:46;;;;;;;3.93;1.90;;;20.30;91.60;;;;;;4991318;28;20191;-58
2022/08/06 05:04:12;;;;;;;2.57;2.00;;;20.40;91.50;;;;;;4989131;28;20644;-55
2022/08/06 05:07:05;;;;;;;4.13;2.10;;;20.40;91.20;;;;;;4989415;28;20278;-58
2022/08/06 05:09:31;;;;;;;2.38;2.08;;;20.50;91.50;;;;;;4986767;28;20192;-56
2022/08/06 05:12:06;;;;;;;2.47;2.10;;;20.60;91.40;;;;;;4987691;28;20579;-55
2022/08/06 05:14:49;;;;;;;2.30;2.20;;;20.70;91.00;;;;;;4990975;28;20921;-57
2022/08/06 05:17:19;;;;;;;2.35;2.20;;;21.00;90.70;;;;;;4989151;28;20206;-59
2022/08/06 05:19:53;;;;;;;2.70;2.50;;;21.10;91.00;;;;;;4998811;28;20190;-59
2022/08/06 05:22:19;;;;;;;2.53;1.88;;;20.80;90.40;;;;;;4986564;28;20914;-57
2022/08/06 05:24:47;;;;;;;8.38;2.63;;;20.90;91.00;;;;;;4992169;28;20226;-56
2022/08/06 05:27:13;;;;;;;3.03;2.50;;;23.20;91.60;;;;;;4988094;28;20217;-58
2022/08/06 05:29:42;;;;;;;2.88;2.55;;;20.90;90.50;;;;;;4990562;28;20199;-58
2022/08/06 05:32:08;;;;;;;2.60;2.20;;;20.90;90.90;;;;;;4995539;28;20307;-57
2022/08/06 05:34:33;;;;;;;2.00;1.90;;;20.60;91.00;;;;;;4992979;28;20543;-56
2022/08/06 05:36:59;;;;;;;2.60;2.40;;;20.60;91.70;;;;;;4984231;28;20541;-58
2022/08/06 05:39:25;;;;;;;2.33;2.23;;;21.00;91.70;;;;;;4993538;28;20187;-65
2022/08/06 05:41:50;;;;;;;3.13;2.00;;;20.80;91.40;;;;;;4992702;28;20565;-66
2022/08/06 05:44:16;;;;;;;3.63;2.40;;;20.60;91.40;;;;;;4998255;28;20190;-66
2022/08/06 05:46:50;;;;;;;4.20;2.57;;;20.50;91.40;;;;;;4990084;28;20668;-66
2022/08/06 05:49:27;;;;;;;2.50;2.30;;;20.40;91.40;;;;;;4991717;28;20226;-67
2022/08/06 05:52:32;;;;;;;3.20;2.00;;;20.10;92.00;;;;;;4991423;28;20190;-67
2022/08/06 05:55:02;;;;;;;2.35;2.15;;;20.20;92.50;;;;;;4917150;29;20180;-65
2022/08/06 05:57:31;;;;;;;2.70;2.50;;;20.20;92.20;;;;;;4978991;28;20228;-65
2022/08/06 06:00:04;;;;;;;2.67;2.47;;;20.10;92.30;;;;;;4992336;28;20263;-66
2022/08/06 06:02:30;;;;;;;2.78;2.45;;;20.00;92.70;;;;;;4986082;28;20203;-64
2022/08/06 06:04:58;;;;;;;2.83;2.20;;;20.00;93.10;;;;;;4985896;28;20219;-66
2022/08/06 06:07:23;;;;;;;2.67;2.47;;;20.00;93.10;;;;;;4988388;28;20226;-66
2022/08/06 06:09:49;;;;;;;5.87;2.33;;;20.10;92.90;;;;;;4994517;28;20699;-66
2022/08/06 06:12:16;;;;;;;2.70;2.50;;;20.30;92.90;;;;;;4995328;28;20210;-65
2022/08/06 06:14:43;;;;;;;2.40;2.20;;;20.40;92.50;;;;;;4992215;28;20215;-65
2022/08/06 06:17:31;;;;;;;2.70;2.50;;;20.20;92.70;;;;;;4987826;28;20615;-65
2022/08/06 06:20:19;;;;;;;3.08;2.75;;;20.40;92.70;;;;;;4991648;28;20586;-65
2022/08/06 06:22:52;;;;;;;3.78;2.35;;;20.30;92.80;;;;;;4985230;28;20188;-65
2022/08/06 06:25:54;;;;;;;2.50;2.20;;;20.30;92.90;;;;;;4988238;28;20214;-66
2022/08/06 06:28:51;;;;;;;3.13;2.83;;;20.30;92.90;;;;;;4977370;28;20704;-65
2022/08/06 06:31:35;;;;;;;3.78;2.50;;;20.30;93.10;;;;;;4946864;28;20200;-64
2022/08/06 06:34:08;;;;;;;2.78;2.58;;;20.80;92.80;;;;;;4987603;28;20211;-65
2022/08/06 06:36:52;;;;;;;2.45;2.17;;;20.60;92.40;;;;;;4985622;28;20184;-65
2022/08/06 06:39:21;;;;;;;4.05;2.65;;;20.70;92.20;;;;;;4991250;28;20188;-65
2022/08/06 06:41:56;;;;;;;3.75;2.63;;;21.00;91.60;;;;;;4985212;28;20567;-65
2022/08/06 06:44:31;;;;;;;2.60;2.40;;;21.00;91.60;;;;;;4990051;28;20277;-65
2022/08/06 06:47:10;;;;;;;3.13;2.80;;;21.20;91.10;;;;;;4986739;28;20187;-65
2022/08/06 06:49:51;;;;;;;2.70;2.50;;;21.30;90.90;;;;;;4990496;28;20205;-65
2022/08/06 06:52:23;;;;;;;2.92;2.72;;;21.20;90.80;;;;;;4989455;28;20214;-65
2022/08/06 06:55:01;;;;;;;3.13;2.80;;;21.10;90.70;;;;;;4989977;28;20289;-65
2022/08/06 06:57:32;;;;;;;6.10;3.35;;;21.00;91.20;;;;;;4987861;28;20336;-64
2022/08/06 07:00:02;;;;;;;3.97;2.30;;;21.20;91.40;;;;;;4989669;28;20180;-64
2022/08/06 07:02:31;;;;;;;2.40;2.20;;;21.30;91.00;;;;;;4989102;28;20195;-65
2022/08/06 07:05:02;;;;;;;2.67;2.47;;;21.60;90.80;;;;;;4990186;28;20443;-64
2022/08/06 07:07:32;;;;;;;3.90;2.67;;;21.80;90.10;;;;;;4981888;28;20293;-65
2022/08/06 07:10:00;;;;;;;2.50;2.30;;;22.00;90.60;;;;;;4990142;28;20323;-65
2022/08/06 07:12:28;;;;;;;2.73;2.53;;;22.80;86.50;;;;;;4988206;28;21011;-65
2022/08/06 07:14:55;;;;;;;5.23;2.50;;;24.10;83.70;;;;;;4988694;28;20550;-66
2022/08/06 07:17:23;;;;;;;2.60;2.40;;;25.20;79.30;;;;;;4991166;28;20479;-64
2022/08/06 07:19:53;;;;;;;2.73;2.53;;;26.40;75.10;;;;;;4990274;28;20450;-65
2022/08/06 07:22:22;;;;;;;2.40;2.20;;;26.90;71.00;;;;;;4985658;28;20512;-66
2022/08/06 07:24:52;;;;;;;2.33;2.20;;;26.50;71.50;;;;;;4987653;28;20453;-66
2022/08/06 07:27:19;;;;;;;2.60;2.40;;;26.40;72.30;;;;;;4994678;28;20552;-65
2022/08/06 07:29:46;;;;;;;2.70;2.50;;;25.90;72.80;;;;;;4988738;28;20429;-65
2022/08/06 07:32:12;;;;;;;2.53;2.37;;;25.00;74.50;;;;;;4985815;28;20506;-66
2022/08/06 07:34:40;;;;;;;3.70;2.80;;;24.50;77.40;;;;;;4990341;28;20469;-64
2022/08/06 07:37:07;;;;;;;3.17;2.70;;;24.10;77.30;;;;;;4988881;28;20846;-65
2022/08/06 07:39:36;;;;;;;2.57;2.37;;;23.40;77.80;;;;;;4988804;28;20489;-65
2022/08/06 07:42:07;;;;;;;2.67;2.47;;;23.30;78.70;;;;;;4987498;28;20437;-64
2022/08/06 07:44:36;;;;;;;2.70;2.50;;;23.00;81.80;;;;;;5005094;28;20822;-66
2022/08/06 07:47:03;;;;;;;3.00;2.70;;;24.40;79.90;;;;;;4986620;28;20446;-66
2022/08/06 07:49:40;;;;;;;3.13;2.80;;;26.00;75.00;;;;;;4989242;28;20446;-65
2022/08/06 07:52:09;;;;;;;2.50;2.30;;;26.50;71.10;;;;;;4983809;28;20466;-65
2022/08/06 07:54:36;;;;;;;2.70;2.50;;;27.10;69.70;;;;;;4984563;28;20467;-65
2022/08/06 07:57:02;;;;;;;3.60;3.00;;;26.20;68.10;;;;;;4986917;28;20269;-65
2022/08/06 07:59:29;;;;;;;3.10;2.90;;;26.20;69.30;;;;;;4987907;28;20447;-65
2022/08/06 08:01:55;;;;;;;4.63;2.53;;;25.60;69.90;;;;;;4988320;28;20565;-65
2022/08/06 08:07:06;;;;;;;3.03;2.70;;;26.00;72.10;;;;;;4979951;28;20954;-66
2022/08/06 08:09:33;;;;;;;3.90;2.30;;;26.90;68.10;;;;;;4989743;28;21054;-67
2022/08/06 08:11:59;;;;;;;3.50;2.70;;;27.50;65.90;;;;;;4987627;28;20521;-64
2022/08/06 08:14:26;;;;;;;3.40;2.40;;;28.00;64.20;;;;;;4985590;28;20445;-65
2022/08/06 08:16:52;;;;;;;2.70;2.50;;;28.00;62.30;;;;;;4988838;28;20455;-66
2022/08/06 08:19:32;;;;;;;4.40;2.80;;;28.70;60.80;;;;;;4989384;28;20819;-66
2022/08/06 08:22:06;;;;;;;2.30;2.10;;;29.10;58.40;;;;;;4992606;28;20466;-65
2022/08/06 08:24:33;;;;;;;2.80;2.20;;;30.00;58.20;;;;;;4993282;28;20500;-65
2022/08/06 08:26:59;;;;;;;2.90;2.20;;;30.40;56.30;;;;;;4993297;28;20442;-64
2022/08/06 08:29:26;;;;;;;2.30;2.10;;;30.50;54.70;;;;;;4991005;28;20452;-63
2022/08/06 08:31:53;;;;;;;3.20;2.30;;;31.50;53.40;;;;;;4993881;28;20461;-62
2022/08/06 08:34:19;;;;;;;3.30;2.50;;;31.30;52.40;;;;;;4994457;28;20953;-62
2022/08/06 08:36:44;;;;;;;3.13;2.83;;;29.80;53.40;;;;;;4991450;28;20495;-64
2022/08/06 08:39:10;;;;;;;3.10;2.70;;;28.40;55.90;;;;;;4994315;28;20198;-67
2022/08/06 08:41:48;;;;;;;3.40;2.70;;;27.80;57.60;;;;;;4989959;28;20197;-65
2022/08/06 08:44:20;;;;;;;3.10;2.87;;;28.00;57.20;;;;;;4990504;28;20179;-65
2022/08/06 08:46:47;;;;;;;4.40;2.90;;;27.20;58.50;;;;;;4984564;28;20450;-65
2022/08/06 08:49:22;;;;;;;2.70;2.50;;;27.20;59.50;;;;;;4994233;28;20522;-67
2022/08/06 08:51:50;;;;;;;3.00;2.50;;;28.90;58.70;;;;;;4986137;28;20453;-64
2022/08/06 08:54:21;;;;;;;2.97;2.70;;;30.70;55.40;;;;;;4988766;28;20447;-66
2022/08/06 08:56:47;;;;;;;2.80;2.27;;;31.00;52.30;;;;;;4993101;28;20438;-66
2022/08/06 08:59:15;;;;;;;4.50;2.33;;;29.90;53.60;;;;;;4990179;28;20451;-67
2022/08/06 09:01:41;;;;;;;2.40;2.20;;;29.60;52.50;;;;;;4991024;28;20442;-64
2022/08/06 09:04:07;;;;;;;2.80;2.67;;;29.50;53.70;;;;;;4990762;28;20442;-62
2022/08/06 09:06:33;;;;;;;2.63;2.40;;;29.80;53.50;;;;;;4987437;28;21023;-61
2022/08/06 09:09:04;;;;;;;2.20;2.10;;;30.90;51.60;;;;;;4997201;28;20520;-61
2022/08/06 09:11:31;;;;;;;2.77;2.57;;;30.70;51.70;;;;;;4989721;28;20533;-62
2022/08/06 09:14:03;;;;;;;2.30;2.20;;;30.60;52.10;;;;;;4987931;28;21002;-61
2022/08/06 09:16:30;;;;;;;4.40;2.27;;;31.20;50.70;;;;;;4989035;28;20442;-62
2022/08/06 09:18:56;;;;;;;2.80;2.60;;;31.30;50.50;;;;;;4994749;28;20466;-62
2022/08/06 09:21:21;;;;;;;2.73;2.50;;;31.10;50.70;;;;;;4987497;28;20970;-64
2022/08/06 09:23:47;;;;;;;3.90;2.23;;;31.40;50.70;;;;;;4991380;28;20683;-66
2022/08/06 09:26:13;;;;;;;3.00;2.80;;;31.20;49.60;;;;;;4990086;28;20200;-63
2022/08/06 09:28:42;;;;;;;2.43;2.23;;;29.70;51.10;;;;;;4992847;28;20302;-64
2022/08/06 09:31:16;;;;;;;2.60;2.40;;;30.20;51.60;;;;;;4990919;28;20185;-64
2022/08/06 09:33:59;;;;;;;4.50;2.20;;;31.00;50.20;;;;;;4990577;28;20470;-63
2022/08/06 09:36:25;;;;;;;2.90;2.70;;;32.00;48.30;;;;;;4992346;28;20498;-64
2022/08/06 09:38:57;;;;;;;2.50;2.30;;;31.90;47.60;;;;;;4990314;28;20539;-63
2022/08/06 09:41:28;;;;;;;2.87;2.67;;;30.90;47.70;;;;;;4991139;28;20440;-63
2022/08/06 09:43:56;;;;;;;3.13;2.83;;;29.90;49.40;;;;;;5013796;28;20447;-64
2022/08/06 09:46:37;;;;;;;2.90;2.70;;;29.50;50.20;;;;;;4997433;28;20500;-65
2022/08/06 09:49:03;;;;;;;4.17;3.17;;;29.20;51.60;;;;;;4987216;28;20475;-66
2022/08/06 09:51:30;;;;;;;3.03;2.83;;;28.90;52.00;;;;;;4990165;28;20483;-66
2022/08/06 09:53:58;;;;;;;3.17;2.90;;;28.40;53.50;;;;;;4991666;28;21470;-69
2022/08/06 09:56:27;;;;;;;2.80;2.60;;;27.80;54.80;;;;;;4990500;28;20451;-68
2022/08/06 09:59:01;;;;;;;3.27;2.90;;;27.40;55.50;;;;;;4991063;28;20901;-67
2022/08/06 10:01:28;;;;;;;3.73;3.43;;;27.60;55.40;;;;;;4984476;28;20444;-65
2022/08/06 10:03:56;;;;;;;3.80;3.23;;;28.90;54.40;;;;;;4992443;28;20466;-63
2022/08/06 10:06:22;;;;;;;3.83;2.57;;;29.40;52.30;;;;;;4981157;28;20985;-66
2022/08/06 10:08:50;;;;;;;2.80;2.20;;;29.50;51.30;;;;;;5003734;28;20841;-66
2022/08/06 10:11:33;;;;;;;4.80;3.43;;;30.20;50.30;;;;;;4989198;28;20557;-66
2022/08/06 10:13:59;;;;;;;3.23;2.93;;;29.40;51.60;;;;;;4993350;28;20985;-70
2022/08/06 10:16:28;;;;;;;2.70;2.50;;;29.60;50.90;;;;;;4990365;28;20449;-69
2022/08/06 10:18:54;;;;;;;5.60;5.20;;;29.10;50.70;;;;;;4990939;28;20288;-68
2022/08/06 10:21:27;;;;;;;3.10;2.80;;;28.80;51.10;;;;;;4986363;28;20843;-69
2022/08/06 10:24:01;;;;;;;2.67;2.57;;;28.20;52.40;;;;;;4990512;28;20195;-69
2022/08/06 10:26:30;;;;;;;3.50;3.20;;;27.80;53.90;;;;;;4984119;28;20487;-70
2022/08/06 10:29:03;;;;;;;4.20;3.90;;;27.20;54.70;;;;;;4991930;28;20553;-69
2022/08/06 10:31:30;;;;;;;3.00;2.80;;;26.70;56.00;;;;;;4986662;28;20467;-69
2022/08/06 10:34:23;;;;;;;3.30;3.00;;;26.40;56.30;;;;;;4989451;28;20474;-68
2022/08/06 10:36:57;;;;;;;2.87;2.63;;;26.20;55.90;;;;;;4987673;28;20438;-67
2022/08/06 10:39:28;;;;;;;3.40;3.10;;;25.50;56.70;;;;;;4990079;28;20479;-68
2022/08/06 10:41:55;;;;;;;4.07;3.20;;;25.10;58.10;;;;;;4989363;28;20462;-69
2022/08/06 10:44:22;;;;;;;3.97;3.10;;;25.30;57.70;;;;;;4988438;28;20903;-70
2022/08/06 10:46:51;;;;;;;3.17;2.97;;;25.50;57.90;;;;;;4996784;28;20440;-69
2022/08/06 10:49:19;;;;;;;3.30;2.90;;;25.90;57.30;;;;;;4995074;28;20440;-69
2022/08/06 10:51:45;;;;;;;4.13;3.50;;;25.90;57.40;;;;;;4984496;28;20441;-70
2022/08/06 10:54:11;;;;;;;3.40;2.50;;;25.80;56.80;;;;;;4988610;28;20468;-69
2022/08/06 10:56:38;;;;;;;4.30;4.00;;;25.20;57.40;;;;;;4989032;28;20824;-70
2022/08/06 10:59:05;;;;;;;3.40;3.13;;;25.30;58.40;;;;;;4988046;28;20534;-70
2022/08/06 11:01:53;;;;;;;3.20;3.00;;;25.50;58.60;;;;;;4987404;28;20546;-71
2022/08/06 11:04:30;;;;;;;3.73;3.27;;;25.50;57.70;;;;;;4986001;28;20442;-70
2022/08/06 11:07:31;;;;;;;3.00;2.70;;;25.60;57.50;;;;;;4989695;28;20982;-70
2022/08/06 11:10:18;;;;;;;3.27;3.07;;;25.90;57.00;;;;;;4990333;28;20465;-69
2022/08/06 11:12:55;;;;;;;2.90;2.60;;;26.20;57.10;;;;;;4988118;28;20986;-70
2022/08/06 11:15:21;;;;;;;3.63;2.90;;;26.40;56.50;;;;;;4988736;28;20445;-70
2022/08/06 11:17:48;;;;;;;2.87;2.67;;;26.30;55.60;;;;;;4987030;28;20498;-69
2022/08/06 11:20:32;;;;;;;4.60;2.60;;;25.90;56.30;;;;;;4987977;28;20434;-68
2022/08/06 11:23:25;;;;;;;3.10;2.53;;;25.80;57.20;;;;;;4986147;28;21063;-69
2022/08/06 11:25:56;;;;;;;3.83;2.80;;;25.80;57.80;;;;;;4986528;28;20815;-67
2022/08/06 11:28:31;;;;;;;5.43;3.00;;;26.20;56.20;;;;;;4989578;28;20501;-72
2022/08/06 11:31:02;;;;;;;4.03;3.33;;;26.40;56.40;;;;;;4987885;28;20969;-70
2022/08/06 11:33:34;;;;;;;7.57;3.40;;;27.20;55.00;;;;;;4988920;28;20516;-70
2022/08/06 11:36:03;;;;;;;3.60;3.27;;;27.90;53.20;;;;;;4985947;28;20757;-70
2022/08/06 11:38:46;;;;;;;7.33;3.80;;;28.30;51.00;;;;;;4987916;28;20447;-69
2022/08/06 11:41:21;;;;;;;6.00;3.10;;;28.40;52.40;;;;;;4988383;28;21029;-70
2022/08/06 11:43:53;;;;;;;3.10;2.87;;;27.90;51.70;;;;;;4987593;28;20452;-69
2022/08/06 11:46:19;;;;;;;3.13;2.93;;;27.20;52.80;;;;;;4980755;28;20448;-69
2022/08/06 11:49:02;;;;;;;2.63;2.50;;;27.00;53.70;;;;;;4980963;28;20450;-70
2022/08/06 11:51:37;;;;;;;4.13;3.27;;;27.10;53.70;;;;;;4982820;28;20530;-70
2022/08/06 11:54:19;;;;;;;3.37;3.07;;;26.90;55.20;;;;;;4984766;28;20486;-70
2022/08/06 11:57:06;;;;;;;4.50;2.53;;;27.00;55.20;;;;;;4985726;28;20457;-70
2022/08/06 11:59:45;;;;;;;3.50;3.20;;;26.70;55.50;;;;;;4985014;28;20465;-70
2022/08/06 12:02:13;;;;;;;2.70;2.50;;;26.50;55.70;;;;;;4982714;28;20952;-70
2022/08/06 12:04:42;;;;;;;2.60;2.47;;;26.80;55.70;;;;;;4985509;28;20438;-71
2022/08/06 12:07:24;;;;;;;3.10;2.90;;;26.80;55.10;;;;;;4981103;28;20446;-69
2022/08/06 12:10:12;;;;;;;4.00;2.93;;;26.70;55.30;;;;;;4988951;28;20439;-69
2022/08/06 12:12:42;;;;;;;2.77;2.57;;;26.90;55.50;;;;;;4988220;28;20466;-71
2022/08/06 12:15:21;;;;;;;4.32;2.75;;;26.90;55.30;;;;;;4984830;28;20435;-58
2022/08/06 12:17:57;;;;;;;2.90;2.70;;;27.00;54.70;;;;;;4988773;28;20261;-58
2022/08/06 12:20:29;;;;;;;3.40;3.07;;;26.50;55.20;;;;;;4982367;28;20441;-58
2022/08/06 12:22:55;;;;;;;3.23;2.80;;;26.10;55.40;;;;;;4983532;28;20927;-57
2022/08/06 12:25:28;;;;;;;3.00;2.77;;;25.40;57.00;;;;;;4989874;28;20460;-59
2022/08/06 12:27:56;;;;;;;3.10;2.80;;;25.30;57.50;;;;;;4987588;28;20480;-58
2022/08/06 12:30:22;;;;;;;4.07;2.63;;;25.50;58.40;;;;;;4986001;28;20441;-58
2022/08/06 12:32:48;;;;;;;3.30;3.00;;;25.70;57.30;;;;;;4991024;28;20509;-58
2022/08/06 12:35:14;;;;;;;3.27;2.93;;;25.70;57.00;;;;;;4989198;28;20485;-56
2022/08/06 12:37:43;;;;;;;3.00;2.77;;;26.00;57.00;;;;;;4987148;28;20508;-59
2022/08/06 12:40:23;;;;;;;3.43;3.13;;;26.20;56.60;;;;;;4988916;28;20435;-58
2022/08/06 12:42:50;;;;;;;2.70;2.50;;;26.00;56.80;;;;;;4986788;28;20540;-58
2022/08/06 12:45:24;;;;;;;5.60;3.43;;;26.00;56.70;;;;;;4991696;28;20792;-58
2022/08/06 12:48:00;;;;;;;3.20;2.90;;;25.90;56.60;;;;;;4989326;28;20513;-58
2022/08/06 12:50:27;;;;;;;3.50;2.70;;;26.00;56.70;;;;;;4987859;28;20448;-59
2022/08/06 12:53:02;;;;;;;2.87;2.67;;;26.00;56.80;;;;;;4983299;28;20480;-59
2022/08/06 12:55:28;;;;;;;5.80;3.23;;;26.00;56.60;;;;;;4985418;28;20429;-58
2022/08/06 12:57:55;;;;;;;6.03;2.87;;;25.80;56.70;;;;;;4988499;28;20491;-58
2022/08/06 13:00:21;;;;;;;3.30;3.10;;;25.50;57.20;;;;;;4986304;28;20466;-57
2022/08/06 13:02:48;;;;;;;3.67;2.60;;;25.30;58.10;;;;;;4986442;28;20968;-59
2022/08/06 13:05:15;;;;;;;3.20;2.97;;;25.20;57.70;;;;;;4990769;28;20489;-56
2022/08/06 13:07:41;;;;;;;3.97;2.97;;;25.10;58.10;;;;;;4989922;28;20594;-57